sensor_id;sensor_type;location;lat;lon;timestamp;P1;durP1;ratioP1;P2;durP2;ratioP2
31978;SDS011;18502;43.574;1.276;2022-08-19T00:01:25;13.77;;;5.90;;
31978;SDS011;18502;43.574;1.276;2022-08-19T00:03:52;12.23;;;5.55;;
31978;SDS011;18502;43.574;1.276;2022-08-19T00:06:18;9.18;;;6.07;;
31978;SDS011;18502;43.574;1.276;2022-08-19T00:08:44;11.55;;;5.63;;
31978;SDS011;18502;43.574;1.276;2022-08-19T00:11:10;13.88;;;7.38;;
31978;SDS011;18502;43.574;1.276;2022-08-19T00:13:35;9.52;;;6.57;;
31978;SDS011;18502;43.574;1.276;2022-08-19T00:16:02;10.32;;;6.47;;
31978;SDS011;18502;43.574;1.276;2022-08-19T00:18:28;8.88;;;6.22;;
31978;SDS011;18502;43.574;1.276;2022-08-19T00:20:54;9.27;;;5.90;;
31978;SDS011;18502;43.574;1.276;2022-08-19T00:23:20;12.30;;;7.13;;
31978;SDS011;18502;43.574;1.276;2022-08-19T00:25:45;12.30;;;7.57;;
31978;SDS011;18502;43.574;1.276;2022-08-19T00:28:11;10.77;;;6.80;;
31978;SDS011;18502;43.574;1.276;2022-08-19T00:30:37;12.18;;;6.95;;
31978;SDS011;18502;43.574;1.276;2022-08-19T00:33:03;15.98;;;7.30;;
31978;SDS011;18502;43.574;1.276;2022-08-19T00:35:28;17.08;;;7.32;;
31978;SDS011;18502;43.574;1.276;2022-08-19T00:37:54;13.73;;;7.78;;
31978;SDS011;18502;43.574;1.276;2022-08-19T00:40:21;9.13;;;6.68;;
31978;SDS011;18502;43.574;1.276;2022-08-19T00:42:47;10.93;;;6.97;;
31978;SDS011;18502;43.574;1.276;2022-08-19T00:45:14;11.85;;;6.63;;
31978;SDS011;18502;43.574;1.276;2022-08-19T00:50:10;13.95;;;7.07;;
31978;SDS011;18502;43.574;1.276;2022-08-19T00:52:42;14.40;;;6.93;;
31978;SDS011;18502;43.574;1.276;2022-08-19T00:57:46;9.23;;;6.50;;
31978;SDS011;18502;43.574;1.276;2022-08-19T01:00:17;11.80;;;7.15;;
31978;SDS011;18502;43.574;1.276;2022-08-19T01:02:44;12.68;;;7.15;;
31978;SDS011;18502;43.574;1.276;2022-08-19T01:05:14;15.27;;;6.93;;
31978;SDS011;18502;43.574;1.276;2022-08-19T01:07:46;12.18;;;6.95;;
31978;SDS011;18502;43.574;1.276;2022-08-19T01:10:14;19.45;;;7.85;;
31978;SDS011;18502;43.574;1.276;2022-08-19T01:12:44;14.77;;;7.00;;
31978;SDS011;18502;43.574;1.276;2022-08-19T01:15:12;23.15;;;8.43;;
31978;SDS011;18502;43.574;1.276;2022-08-19T01:17:40;13.13;;;6.70;;
31978;SDS011;18502;43.574;1.276;2022-08-19T01:20:12;13.80;;;6.45;;
31978;SDS011;18502;43.574;1.276;2022-08-19T01:22:47;14.75;;;7.25;;
31978;SDS011;18502;43.574;1.276;2022-08-19T01:25:29;17.02;;;7.95;;
31978;SDS011;18502;43.574;1.276;2022-08-19T01:28:07;14.52;;;7.03;;
31978;SDS011;18502;43.574;1.276;2022-08-19T01:30:33;10.70;;;6.45;;
31978;SDS011;18502;43.574;1.276;2022-08-19T01:33:00;13.32;;;6.97;;
31978;SDS011;18502;43.574;1.276;2022-08-19T01:35:27;12.52;;;6.95;;
31978;SDS011;18502;43.574;1.276;2022-08-19T01:38:05;14.98;;;7.82;;
31978;SDS011;18502;43.574;1.276;2022-08-19T01:40:33;15.98;;;7.00;;
31978;SDS011;18502;43.574;1.276;2022-08-19T01:43:01;12.10;;;7.68;;
31978;SDS011;18502;43.574;1.276;2022-08-19T01:45:28;14.93;;;8.15;;
31978;SDS011;18502;43.574;1.276;2022-08-19T01:47:56;13.45;;;7.47;;
31978;SDS011;18502;43.574;1.276;2022-08-19T01:50:22;11.25;;;7.15;;
31978;SDS011;18502;43.574;1.276;2022-08-19T01:52:48;14.07;;;7.32;;
31978;SDS011;18502;43.574;1.276;2022-08-19T01:55:15;12.45;;;7.40;;
31978;SDS011;18502;43.574;1.276;2022-08-19T01:57:50;12.07;;;7.57;;
31978;SDS011;18502;43.574;1.276;2022-08-19T02:00:20;14.80;;;7.93;;
31978;SDS011;18502;43.574;1.276;2022-08-19T02:02:47;15.15;;;8.00;;
31978;SDS011;18502;43.574;1.276;2022-08-19T02:05:13;11.18;;;7.35;;
31978;SDS011;18502;43.574;1.276;2022-08-19T02:07:42;10.73;;;7.78;;
31978;SDS011;18502;43.574;1.276;2022-08-19T02:10:12;17.98;;;7.65;;
31978;SDS011;18502;43.574;1.276;2022-08-19T02:12:40;11.55;;;7.47;;
31978;SDS011;18502;43.574;1.276;2022-08-19T02:15:06;16.13;;;7.50;;
31978;SDS011;18502;43.574;1.276;2022-08-19T02:17:33;17.17;;;7.75;;
31978;SDS011;18502;43.574;1.276;2022-08-19T02:20:00;13.90;;;7.18;;
31978;SDS011;18502;43.574;1.276;2022-08-19T02:22:26;12.13;;;6.85;;
31978;SDS011;18502;43.574;1.276;2022-08-19T02:24:52;16.55;;;8.18;;
31978;SDS011;18502;43.574;1.276;2022-08-19T02:27:19;13.95;;;7.60;;
31978;SDS011;18502;43.574;1.276;2022-08-19T02:29:46;15.85;;;6.60;;
31978;SDS011;18502;43.574;1.276;2022-08-19T02:32:13;11.93;;;6.90;;
31978;SDS011;18502;43.574;1.276;2022-08-19T02:34:39;14.07;;;6.90;;
31978;SDS011;18502;43.574;1.276;2022-08-19T02:37:05;17.23;;;6.65;;
31978;SDS011;18502;43.574;1.276;2022-08-19T02:39:51;13.07;;;7.28;;
31978;SDS011;18502;43.574;1.276;2022-08-19T02:42:17;17.67;;;7.40;;
31978;SDS011;18502;43.574;1.276;2022-08-19T02:44:42;12.20;;;6.90;;
31978;SDS011;18502;43.574;1.276;2022-08-19T02:47:09;12.90;;;6.72;;
31978;SDS011;18502;43.574;1.276;2022-08-19T02:49:35;13.93;;;6.53;;
31978;SDS011;18502;43.574;1.276;2022-08-19T02:52:01;11.63;;;6.05;;
31978;SDS011;18502;43.574;1.276;2022-08-19T02:54:27;13.02;;;6.65;;
31978;SDS011;18502;43.574;1.276;2022-08-19T02:56:53;10.73;;;6.20;;
31978;SDS011;18502;43.574;1.276;2022-08-19T02:59:19;15.48;;;7.25;;
31978;SDS011;18502;43.574;1.276;2022-08-19T03:01:45;11.90;;;7.32;;
31978;SDS011;18502;43.574;1.276;2022-08-19T03:04:12;15.02;;;6.60;;
31978;SDS011;18502;43.574;1.276;2022-08-19T03:06:41;13.13;;;6.18;;
31978;SDS011;18502;43.574;1.276;2022-08-19T03:09:09;18.20;;;7.03;;
31978;SDS011;18502;43.574;1.276;2022-08-19T03:11:36;14.13;;;6.70;;
31978;SDS011;18502;43.574;1.276;2022-08-19T03:14:02;14.52;;;6.60;;
31978;SDS011;18502;43.574;1.276;2022-08-19T03:16:29;13.25;;;6.45;;
31978;SDS011;18502;43.574;1.276;2022-08-19T03:18:57;15.40;;;6.60;;
31978;SDS011;18502;43.574;1.276;2022-08-19T03:21:26;13.77;;;6.45;;
31978;SDS011;18502;43.574;1.276;2022-08-19T03:23:56;13.93;;;5.63;;
31978;SDS011;18502;43.574;1.276;2022-08-19T03:26:24;9.55;;;5.68;;
31978;SDS011;18502;43.574;1.276;2022-08-19T03:28:50;14.80;;;6.10;;
31978;SDS011;18502;43.574;1.276;2022-08-19T03:31:18;13.23;;;5.70;;
31978;SDS011;18502;43.574;1.276;2022-08-19T03:36:13;11.20;;;6.32;;
31978;SDS011;18502;43.574;1.276;2022-08-19T03:38:47;9.50;;;5.65;;
31978;SDS011;18502;43.574;1.276;2022-08-19T03:41:21;11.52;;;6.22;;
31978;SDS011;18502;43.574;1.276;2022-08-19T03:43:48;15.60;;;5.80;;
31978;SDS011;18502;43.574;1.276;2022-08-19T03:46:29;15.65;;;6.18;;
31978;SDS011;18502;43.574;1.276;2022-08-19T03:48:56;14.88;;;5.85;;
31978;SDS011;18502;43.574;1.276;2022-08-19T03:51:25;8.48;;;5.20;;
31978;SDS011;18502;43.574;1.276;2022-08-19T03:53:53;9.73;;;5.43;;
31978;SDS011;18502;43.574;1.276;2022-08-19T03:56:19;13.05;;;5.35;;
31978;SDS011;18502;43.574;1.276;2022-08-19T03:58:46;13.35;;;5.53;;
31978;SDS011;18502;43.574;1.276;2022-08-19T04:01:15;10.82;;;5.78;;
31978;SDS011;18502;43.574;1.276;2022-08-19T04:03:43;12.73;;;5.95;;
31978;SDS011;18502;43.574;1.276;2022-08-19T04:06:14;14.23;;;5.90;;
31978;SDS011;18502;43.574;1.276;2022-08-19T04:08:40;14.65;;;6.75;;
31978;SDS011;18502;43.574;1.276;2022-08-19T04:11:11;14.55;;;6.03;;
31978;SDS011;18502;43.574;1.276;2022-08-19T04:13:38;12.48;;;6.03;;
31978;SDS011;18502;43.574;1.276;2022-08-19T04:16:04;13.23;;;5.72;;
31978;SDS011;18502;43.574;1.276;2022-08-19T04:18:30;18.17;;;7.00;;
31978;SDS011;18502;43.574;1.276;2022-08-19T04:20:57;13.50;;;5.57;;
31978;SDS011;18502;43.574;1.276;2022-08-19T04:23:23;17.23;;;6.53;;
31978;SDS011;18502;43.574;1.276;2022-08-19T04:25:49;10.15;;;6.28;;
31978;SDS011;18502;43.574;1.276;2022-08-19T04:28:15;12.73;;;6.10;;
31978;SDS011;18502;43.574;1.276;2022-08-19T04:30:47;16.40;;;6.80;;
31978;SDS011;18502;43.574;1.276;2022-08-19T04:33:15;16.30;;;6.80;;
31978;SDS011;18502;43.574;1.276;2022-08-19T04:35:44;12.68;;;6.43;;
31978;SDS011;18502;43.574;1.276;2022-08-19T04:38:13;18.35;;;6.25;;
31978;SDS011;18502;43.574;1.276;2022-08-19T04:40:41;17.15;;;7.97;;
31978;SDS011;18502;43.574;1.276;2022-08-19T04:43:36;11.85;;;6.45;;
31978;SDS011;18502;43.574;1.276;2022-08-19T04:46:09;13.25;;;6.75;;
31978;SDS011;18502;43.574;1.276;2022-08-19T04:48:36;18.08;;;6.93;;
31978;SDS011;18502;43.574;1.276;2022-08-19T04:51:05;12.38;;;6.32;;
31978;SDS011;18502;43.574;1.276;2022-08-19T04:53:33;25.90;;;8.50;;
31978;SDS011;18502;43.574;1.276;2022-08-19T04:56:03;17.42;;;7.97;;
31978;SDS011;18502;43.574;1.276;2022-08-19T04:58:32;13.90;;;8.52;;
31978;SDS011;18502;43.574;1.276;2022-08-19T05:00:58;17.30;;;7.20;;
31978;SDS011;18502;43.574;1.276;2022-08-19T05:03:27;17.85;;;7.85;;
31978;SDS011;18502;43.574;1.276;2022-08-19T05:05:58;17.08;;;7.38;;
31978;SDS011;18502;43.574;1.276;2022-08-19T05:08:44;17.33;;;7.03;;
31978;SDS011;18502;43.574;1.276;2022-08-19T05:11:11;13.88;;;7.68;;
31978;SDS011;18502;43.574;1.276;2022-08-19T05:13:40;15.85;;;8.25;;
31978;SDS011;18502;43.574;1.276;2022-08-19T05:16:08;15.13;;;7.53;;
31978;SDS011;18502;43.574;1.276;2022-08-19T05:18:34;16.33;;;7.65;;
31978;SDS011;18502;43.574;1.276;2022-08-19T05:21:19;14.48;;;7.45;;
31978;SDS011;18502;43.574;1.276;2022-08-19T05:24:04;16.77;;;7.95;;
31978;SDS011;18502;43.574;1.276;2022-08-19T05:26:34;12.85;;;6.85;;
31978;SDS011;18502;43.574;1.276;2022-08-19T05:29:04;13.98;;;8.05;;
31978;SDS011;18502;43.574;1.276;2022-08-19T05:31:30;13.68;;;7.47;;
31978;SDS011;18502;43.574;1.276;2022-08-19T05:33:56;16.02;;;8.13;;
31978;SDS011;18502;43.574;1.276;2022-08-19T05:36:24;13.55;;;6.70;;
31978;SDS011;18502;43.574;1.276;2022-08-19T05:38:51;15.02;;;7.38;;
31978;SDS011;18502;43.574;1.276;2022-08-19T05:41:18;15.32;;;6.88;;
31978;SDS011;18502;43.574;1.276;2022-08-19T05:43:45;13.68;;;6.35;;
31978;SDS011;18502;43.574;1.276;2022-08-19T05:46:18;14.27;;;7.07;;
31978;SDS011;18502;43.574;1.276;2022-08-19T05:48:44;14.57;;;6.22;;
31978;SDS011;18502;43.574;1.276;2022-08-19T05:51:10;10.50;;;5.97;;
31978;SDS011;18502;43.574;1.276;2022-08-19T05:53:36;16.48;;;7.15;;
31978;SDS011;18502;43.574;1.276;2022-08-19T05:56:06;14.20;;;6.38;;
31978;SDS011;18502;43.574;1.276;2022-08-19T05:58:33;13.73;;;6.53;;
31978;SDS011;18502;43.574;1.276;2022-08-19T06:01:00;12.73;;;6.05;;
31978;SDS011;18502;43.574;1.276;2022-08-19T06:03:31;15.95;;;7.07;;
31978;SDS011;18502;43.574;1.276;2022-08-19T06:05:58;17.25;;;6.85;;
31978;SDS011;18502;43.574;1.276;2022-08-19T06:08:25;10.73;;;5.75;;
31978;SDS011;18502;43.574;1.276;2022-08-19T06:10:51;13.02;;;6.45;;
31978;SDS011;18502;43.574;1.276;2022-08-19T06:13:18;11.40;;;6.00;;
31978;SDS011;18502;43.574;1.276;2022-08-19T06:15:44;16.00;;;6.03;;
31978;SDS011;18502;43.574;1.276;2022-08-19T06:18:11;14.23;;;6.25;;
31978;SDS011;18502;43.574;1.276;2022-08-19T06:20:38;11.55;;;5.47;;
31978;SDS011;18502;43.574;1.276;2022-08-19T06:23:05;10.50;;;5.63;;
31978;SDS011;18502;43.574;1.276;2022-08-19T06:25:31;10.50;;;6.10;;
31978;SDS011;18502;43.574;1.276;2022-08-19T06:27:57;9.57;;;5.22;;
31978;SDS011;18502;43.574;1.276;2022-08-19T06:30:23;10.68;;;6.07;;
31978;SDS011;18502;43.574;1.276;2022-08-19T06:32:48;14.25;;;5.75;;
31978;SDS011;18502;43.574;1.276;2022-08-19T06:35:14;10.70;;;5.97;;
31978;SDS011;18502;43.574;1.276;2022-08-19T06:37:40;11.98;;;5.45;;
31978;SDS011;18502;43.574;1.276;2022-08-19T06:40:06;9.75;;;5.45;;
31978;SDS011;18502;43.574;1.276;2022-08-19T06:42:34;17.20;;;7.60;;
31978;SDS011;18502;43.574;1.276;2022-08-19T06:45:00;23.00;;;6.28;;
31978;SDS011;18502;43.574;1.276;2022-08-19T06:47:28;13.02;;;5.63;;
31978;SDS011;18502;43.574;1.276;2022-08-19T06:49:56;12.07;;;5.10;;
31978;SDS011;18502;43.574;1.276;2022-08-19T06:52:27;15.68;;;6.47;;
31978;SDS011;18502;43.574;1.276;2022-08-19T06:55:01;9.15;;;5.32;;
31978;SDS011;18502;43.574;1.276;2022-08-19T06:57:28;14.02;;;5.68;;
31978;SDS011;18502;43.574;1.276;2022-08-19T06:59:57;9.30;;;5.07;;
31978;SDS011;18502;43.574;1.276;2022-08-19T07:02:24;7.53;;;4.82;;
31978;SDS011;18502;43.574;1.276;2022-08-19T07:04:51;14.95;;;5.45;;
31978;SDS011;18502;43.574;1.276;2022-08-19T07:07:17;19.08;;;5.50;;
31978;SDS011;18502;43.574;1.276;2022-08-19T07:09:45;8.52;;;4.72;;
31978;SDS011;18502;43.574;1.276;2022-08-19T07:12:11;10.23;;;5.38;;
31978;SDS011;18502;43.574;1.276;2022-08-19T07:14:40;7.97;;;4.28;;
31978;SDS011;18502;43.574;1.276;2022-08-19T07:17:08;14.00;;;4.88;;
31978;SDS011;18502;43.574;1.276;2022-08-19T07:19:37;9.77;;;3.95;;
31978;SDS011;18502;43.574;1.276;2022-08-19T07:22:05;7.22;;;4.20;;
31978;SDS011;18502;43.574;1.276;2022-08-19T07:24:32;13.75;;;4.85;;
31978;SDS011;18502;43.574;1.276;2022-08-19T07:26:59;9.43;;;4.43;;
31978;SDS011;18502;43.574;1.276;2022-08-19T07:29:27;12.77;;;4.70;;
31978;SDS011;18502;43.574;1.276;2022-08-19T07:31:55;9.18;;;4.10;;
31978;SDS011;18502;43.574;1.276;2022-08-19T07:34:23;14.10;;;5.28;;
31978;SDS011;18502;43.574;1.276;2022-08-19T07:36:50;10.02;;;4.53;;
31978;SDS011;18502;43.574;1.276;2022-08-19T07:39:18;10.43;;;3.95;;
31978;SDS011;18502;43.574;1.276;2022-08-19T07:41:46;10.95;;;4.13;;
31978;SDS011;18502;43.574;1.276;2022-08-19T07:44:12;9.50;;;4.20;;
31978;SDS011;18502;43.574;1.276;2022-08-19T07:46:40;10.88;;;4.43;;
31978;SDS011;18502;43.574;1.276;2022-08-19T07:49:09;10.00;;;4.35;;
31978;SDS011;18502;43.574;1.276;2022-08-19T07:51:43;10.27;;;4.60;;
31978;SDS011;18502;43.574;1.276;2022-08-19T07:54:11;12.20;;;4.10;;
31978;SDS011;18502;43.574;1.276;2022-08-19T07:56:37;12.55;;;4.40;;
31978;SDS011;18502;43.574;1.276;2022-08-19T07:59:03;10.90;;;4.30;;
31978;SDS011;18502;43.574;1.276;2022-08-19T08:01:29;11.48;;;4.45;;
31978;SDS011;18502;43.574;1.276;2022-08-19T08:03:56;9.88;;;4.70;;
31978;SDS011;18502;43.574;1.276;2022-08-19T08:06:41;9.32;;;4.30;;
31978;SDS011;18502;43.574;1.276;2022-08-19T08:09:28;10.95;;;4.38;;
31978;SDS011;18502;43.574;1.276;2022-08-19T08:11:58;7.05;;;4.30;;
31978;SDS011;18502;43.574;1.276;2022-08-19T08:14:28;10.32;;;3.85;;
31978;SDS011;18502;43.574;1.276;2022-08-19T08:16:57;8.90;;;4.07;;
31978;SDS011;18502;43.574;1.276;2022-08-19T08:19:24;10.98;;;3.80;;
31978;SDS011;18502;43.574;1.276;2022-08-19T08:21:54;8.73;;;4.15;;
31978;SDS011;18502;43.574;1.276;2022-08-19T08:24:22;8.13;;;4.32;;
31978;SDS011;18502;43.574;1.276;2022-08-19T08:26:48;12.68;;;3.97;;
31978;SDS011;18502;43.574;1.276;2022-08-19T08:29:14;8.60;;;3.67;;
31978;SDS011;18502;43.574;1.276;2022-08-19T08:31:40;9.18;;;3.83;;
31978;SDS011;18502;43.574;1.276;2022-08-19T08:34:07;7.20;;;3.13;;
31978;SDS011;18502;43.574;1.276;2022-08-19T08:36:41;7.15;;;3.50;;
31978;SDS011;18502;43.574;1.276;2022-08-19T08:39:10;6.60;;;3.20;;
31978;SDS011;18502;43.574;1.276;2022-08-19T08:44:32;7.40;;;3.55;;
31978;SDS011;18502;43.574;1.276;2022-08-19T08:47:03;10.65;;;3.03;;
31978;SDS011;18502;43.574;1.276;2022-08-19T08:54:51;11.27;;;4.05;;
31978;SDS011;18502;43.574;1.276;2022-08-19T08:57:22;6.30;;;3.53;;
31978;SDS011;18502;43.574;1.276;2022-08-19T08:59:54;5.90;;;3.33;;
31978;SDS011;18502;43.574;1.276;2022-08-19T09:02:22;6.20;;;3.30;;
31978;SDS011;18502;43.574;1.276;2022-08-19T09:04:48;8.60;;;3.25;;
31978;SDS011;18502;43.574;1.276;2022-08-19T09:07:25;7.07;;;3.20;;
31978;SDS011;18502;43.574;1.276;2022-08-19T09:13:02;5.10;;;3.28;;
31978;SDS011;18502;43.574;1.276;2022-08-19T09:15:34;7.03;;;3.05;;
31978;SDS011;18502;43.574;1.276;2022-08-19T09:18:05;7.80;;;2.65;;
31978;SDS011;18502;43.574;1.276;2022-08-19T09:20:33;7.05;;;3.22;;
31978;SDS011;18502;43.574;1.276;2022-08-19T09:22:59;6.65;;;3.25;;
31978;SDS011;18502;43.574;1.276;2022-08-19T09:25:25;5.55;;;2.85;;
31978;SDS011;18502;43.574;1.276;2022-08-19T09:27:52;5.55;;;3.40;;
31978;SDS011;18502;43.574;1.276;2022-08-19T09:30:23;9.98;;;3.45;;
31978;SDS011;18502;43.574;1.276;2022-08-19T09:32:50;7.90;;;3.72;;
31978;SDS011;18502;43.574;1.276;2022-08-19T09:35:23;5.70;;;3.30;;
31978;SDS011;18502;43.574;1.276;2022-08-19T09:37:51;5.53;;;2.90;;
31978;SDS011;18502;43.574;1.276;2022-08-19T09:40:18;6.95;;;3.22;;
31978;SDS011;18502;43.574;1.276;2022-08-19T09:42:45;8.98;;;4.28;;
31978;SDS011;18502;43.574;1.276;2022-08-19T09:45:12;7.68;;;3.58;;
31978;SDS011;18502;43.574;1.276;2022-08-19T09:47:39;4.80;;;3.15;;
31978;SDS011;18502;43.574;1.276;2022-08-19T09:50:05;8.05;;;3.50;;
31978;SDS011;18502;43.574;1.276;2022-08-19T09:52:33;7.15;;;3.35;;
31978;SDS011;18502;43.574;1.276;2022-08-19T09:55:02;7.88;;;3.60;;
31978;SDS011;18502;43.574;1.276;2022-08-19T09:57:32;7.72;;;3.35;;
31978;SDS011;18502;43.574;1.276;2022-08-19T09:59:58;7.00;;;3.90;;
31978;SDS011;18502;43.574;1.276;2022-08-19T10:02:24;8.68;;;4.03;;
31978;SDS011;18502;43.574;1.276;2022-08-19T10:04:50;6.80;;;3.20;;
31978;SDS011;18502;43.574;1.276;2022-08-19T10:07:34;6.93;;;3.55;;
31978;SDS011;18502;43.574;1.276;2022-08-19T10:10:01;7.38;;;3.13;;
31978;SDS011;18502;43.574;1.276;2022-08-19T10:12:28;7.55;;;3.60;;
31978;SDS011;18502;43.574;1.276;2022-08-19T10:14:54;9.18;;;3.17;;
31978;SDS011;18502;43.574;1.276;2022-08-19T10:17:20;8.52;;;3.53;;
31978;SDS011;18502;43.574;1.276;2022-08-19T10:19:46;6.75;;;3.65;;
31978;SDS011;18502;43.574;1.276;2022-08-19T10:22:12;6.55;;;3.50;;
31978;SDS011;18502;43.574;1.276;2022-08-19T10:24:38;6.05;;;2.92;;
31978;SDS011;18502;43.574;1.276;2022-08-19T10:27:04;5.88;;;3.75;;
31978;SDS011;18502;43.574;1.276;2022-08-19T10:29:31;11.07;;;3.80;;
31978;SDS011;18502;43.574;1.276;2022-08-19T10:32:00;5.82;;;3.42;;
31978;SDS011;18502;43.574;1.276;2022-08-19T10:34:26;5.00;;;2.83;;
31978;SDS011;18502;43.574;1.276;2022-08-19T10:36:53;7.78;;;3.22;;
31978;SDS011;18502;43.574;1.276;2022-08-19T10:39:19;7.70;;;3.38;;
31978;SDS011;18502;43.574;1.276;2022-08-19T10:41:45;5.88;;;3.38;;
31978;SDS011;18502;43.574;1.276;2022-08-19T10:44:12;8.45;;;3.47;;
31978;SDS011;18502;43.574;1.276;2022-08-19T10:46:39;7.60;;;3.25;;
31978;SDS011;18502;43.574;1.276;2022-08-19T10:49:08;6.00;;;3.38;;
31978;SDS011;18502;43.574;1.276;2022-08-19T10:51:34;7.57;;;3.72;;
31978;SDS011;18502;43.574;1.276;2022-08-19T10:54:19;5.32;;;3.50;;
31978;SDS011;18502;43.574;1.276;2022-08-19T10:56:45;4.47;;;3.08;;
31978;SDS011;18502;43.574;1.276;2022-08-19T10:59:35;9.43;;;2.90;;
31978;SDS011;18502;43.574;1.276;2022-08-19T11:02:01;5.35;;;2.55;;
31978;SDS011;18502;43.574;1.276;2022-08-19T11:04:28;6.35;;;3.35;;
31978;SDS011;18502;43.574;1.276;2022-08-19T11:06:54;6.38;;;2.95;;
31978;SDS011;18502;43.574;1.276;2022-08-19T11:09:21;6.20;;;2.78;;
31978;SDS011;18502;43.574;1.276;2022-08-19T11:11:52;5.00;;;2.95;;
31978;SDS011;18502;43.574;1.276;2022-08-19T11:14:19;5.72;;;3.15;;
31978;SDS011;18502;43.574;1.276;2022-08-19T11:16:46;7.82;;;2.55;;
31978;SDS011;18502;43.574;1.276;2022-08-19T11:19:13;7.00;;;2.83;;
31978;SDS011;18502;43.574;1.276;2022-08-19T11:21:42;3.45;;;2.20;;
31978;SDS011;18502;43.574;1.276;2022-08-19T11:24:10;3.70;;;2.75;;
31978;SDS011;18502;43.574;1.276;2022-08-19T11:26:39;6.07;;;3.00;;
31978;SDS011;18502;43.574;1.276;2022-08-19T11:29:06;5.38;;;3.10;;
31978;SDS011;18502;43.574;1.276;2022-08-19T11:31:36;4.75;;;2.80;;
31978;SDS011;18502;43.574;1.276;2022-08-19T11:34:05;6.25;;;3.00;;
31978;SDS011;18502;43.574;1.276;2022-08-19T11:36:32;5.13;;;3.03;;
31978;SDS011;18502;43.574;1.276;2022-08-19T11:38:59;8.00;;;2.90;;
31978;SDS011;18502;43.574;1.276;2022-08-19T11:41:25;6.40;;;2.95;;
31978;SDS011;18502;43.574;1.276;2022-08-19T11:43:52;5.32;;;2.97;;
31978;SDS011;18502;43.574;1.276;2022-08-19T11:46:20;5.32;;;2.80;;
31978;SDS011;18502;43.574;1.276;2022-08-19T11:48:48;3.13;;;2.28;;
31978;SDS011;18502;43.574;1.276;2022-08-19T11:51:17;4.60;;;2.40;;
31978;SDS011;18502;43.574;1.276;2022-08-19T11:53:45;4.95;;;2.50;;
31978;SDS011;18502;43.574;1.276;2022-08-19T11:56:11;4.30;;;2.30;;
31978;SDS011;18502;43.574;1.276;2022-08-19T11:58:37;5.88;;;2.13;;
31978;SDS011;18502;43.574;1.276;2022-08-19T12:01:07;4.60;;;2.70;;
31978;SDS011;18502;43.574;1.276;2022-08-19T12:03:34;7.22;;;2.63;;
31978;SDS011;18502;43.574;1.276;2022-08-19T12:06:04;5.72;;;2.70;;
31978;SDS011;18502;43.574;1.276;2022-08-19T12:08:31;3.00;;;2.25;;
31978;SDS011;18502;43.574;1.276;2022-08-19T12:10:57;4.18;;;2.10;;
31978;SDS011;18502;43.574;1.276;2022-08-19T12:13:23;4.05;;;2.58;;
31978;SDS011;18502;43.574;1.276;2022-08-19T12:15:49;3.95;;;2.00;;
31978;SDS011;18502;43.574;1.276;2022-08-19T12:18:14;6.38;;;2.42;;
31978;SDS011;18502;43.574;1.276;2022-08-19T12:20:41;3.65;;;2.15;;
31978;SDS011;18502;43.574;1.276;2022-08-19T12:23:08;3.72;;;2.08;;
31978;SDS011;18502;43.574;1.276;2022-08-19T12:25:35;3.45;;;2.00;;
31978;SDS011;18502;43.574;1.276;2022-08-19T12:28:01;3.33;;;2.08;;
31978;SDS011;18502;43.574;1.276;2022-08-19T12:30:27;3.47;;;2.00;;
31978;SDS011;18502;43.574;1.276;2022-08-19T12:32:53;3.08;;;2.03;;
31978;SDS011;18502;43.574;1.276;2022-08-19T12:35:19;2.33;;;2.05;;
31978;SDS011;18502;43.574;1.276;2022-08-19T12:37:45;3.40;;;1.80;;
31978;SDS011;18502;43.574;1.276;2022-08-19T12:40:13;4.60;;;2.08;;
31978;SDS011;18502;43.574;1.276;2022-08-19T12:42:40;3.53;;;1.83;;
31978;SDS011;18502;43.574;1.276;2022-08-19T12:45:07;4.20;;;2.13;;
31978;SDS011;18502;43.574;1.276;2022-08-19T12:47:37;4.18;;;1.73;;
31978;SDS011;18502;43.574;1.276;2022-08-19T12:50:03;2.92;;;1.98;;
31978;SDS011;18502;43.574;1.276;2022-08-19T12:52:31;1.85;;;1.73;;
31978;SDS011;18502;43.574;1.276;2022-08-19T12:54:57;3.00;;;1.70;;
31978;SDS011;18502;43.574;1.276;2022-08-19T12:57:23;4.80;;;1.98;;
31978;SDS011;18502;43.574;1.276;2022-08-19T12:59:53;5.50;;;1.80;;
31978;SDS011;18502;43.574;1.276;2022-08-19T13:02:19;3.60;;;1.80;;
31978;SDS011;18502;43.574;1.276;2022-08-19T13:04:46;3.60;;;2.17;;
31978;SDS011;18502;43.574;1.276;2022-08-19T13:07:12;4.57;;;1.92;;
31978;SDS011;18502;43.574;1.276;2022-08-19T13:09:37;3.97;;;1.85;;
31978;SDS011;18502;43.574;1.276;2022-08-19T13:12:06;2.78;;;2.00;;
31978;SDS011;18502;43.574;1.276;2022-08-19T13:14:35;1.80;;;1.65;;
31978;SDS011;18502;43.574;1.276;2022-08-19T13:17:01;4.25;;;1.77;;
31978;SDS011;18502;43.574;1.276;2022-08-19T13:19:26;3.70;;;1.80;;
31978;SDS011;18502;43.574;1.276;2022-08-19T13:21:53;4.22;;;2.22;;
31978;SDS011;18502;43.574;1.276;2022-08-19T13:24:20;4.20;;;2.03;;
31978;SDS011;18502;43.574;1.276;2022-08-19T13:26:46;2.70;;;1.85;;
31978;SDS011;18502;43.574;1.276;2022-08-19T13:29:12;3.13;;;1.58;;
31978;SDS011;18502;43.574;1.276;2022-08-19T13:31:57;3.17;;;1.85;;
31978;SDS011;18502;43.574;1.276;2022-08-19T13:34:41;4.30;;;2.00;;
31978;SDS011;18502;43.574;1.276;2022-08-19T13:37:07;3.17;;;1.90;;
31978;SDS011;18502;43.574;1.276;2022-08-19T13:39:34;6.70;;;1.80;;
31978;SDS011;18502;43.574;1.276;2022-08-19T13:42:00;2.85;;;2.05;;
31978;SDS011;18502;43.574;1.276;2022-08-19T13:44:29;2.08;;;1.80;;
31978;SDS011;18502;43.574;1.276;2022-08-19T13:46:55;4.57;;;1.85;;
31978;SDS011;18502;43.574;1.276;2022-08-19T13:49:32;4.82;;;2.15;;
31978;SDS011;18502;43.574;1.276;2022-08-19T13:51:59;2.03;;;1.70;;
31978;SDS011;18502;43.574;1.276;2022-08-19T13:54:25;2.17;;;1.67;;
31978;SDS011;18502;43.574;1.276;2022-08-19T13:56:51;3.97;;;1.90;;
31978;SDS011;18502;43.574;1.276;2022-08-19T13:59:17;2.67;;;1.63;;
31978;SDS011;18502;43.574;1.276;2022-08-19T14:01:44;4.85;;;1.70;;
31978;SDS011;18502;43.574;1.276;2022-08-19T14:04:09;2.55;;;1.80;;
31978;SDS011;18502;43.574;1.276;2022-08-19T14:06:35;2.60;;;1.63;;
31978;SDS011;18502;43.574;1.276;2022-08-19T14:09:01;3.22;;;2.00;;
31978;SDS011;18502;43.574;1.276;2022-08-19T14:11:28;3.20;;;1.73;;
31978;SDS011;18502;43.574;1.276;2022-08-19T14:13:54;2.17;;;1.80;;
31978;SDS011;18502;43.574;1.276;2022-08-19T14:16:20;3.70;;;1.95;;
31978;SDS011;18502;43.574;1.276;2022-08-19T14:18:46;2.85;;;1.58;;
31978;SDS011;18502;43.574;1.276;2022-08-19T14:21:23;2.55;;;1.80;;
31978;SDS011;18502;43.574;1.276;2022-08-19T14:23:50;6.75;;;1.90;;
31978;SDS011;18502;43.574;1.276;2022-08-19T14:26:17;2.08;;;1.52;;
31978;SDS011;18502;43.574;1.276;2022-08-19T14:28:44;2.83;;;1.60;;
31978;SDS011;18502;43.574;1.276;2022-08-19T14:31:11;3.00;;;1.80;;
31978;SDS011;18502;43.574;1.276;2022-08-19T14:33:38;3.15;;;1.70;;
31978;SDS011;18502;43.574;1.276;2022-08-19T14:36:04;4.93;;;1.90;;
31978;SDS011;18502;43.574;1.276;2022-08-19T14:38:30;5.43;;;1.90;;
31978;SDS011;18502;43.574;1.276;2022-08-19T14:41:10;3.20;;;1.80;;
31978;SDS011;18502;43.574;1.276;2022-08-19T14:43:36;2.92;;;1.70;;
31978;SDS011;18502;43.574;1.276;2022-08-19T14:46:01;2.42;;;2.13;;
31978;SDS011;18502;43.574;1.276;2022-08-19T14:48:27;4.00;;;2.13;;
31978;SDS011;18502;43.574;1.276;2022-08-19T14:50:53;3.10;;;1.90;;
31978;SDS011;18502;43.574;1.276;2022-08-19T14:53:18;2.83;;;1.70;;
31978;SDS011;18502;43.574;1.276;2022-08-19T14:55:44;4.60;;;2.20;;
31978;SDS011;18502;43.574;1.276;2022-08-19T14:58:11;2.78;;;2.03;;
31978;SDS011;18502;43.574;1.276;2022-08-19T15:00:38;4.53;;;2.55;;
31978;SDS011;18502;43.574;1.276;2022-08-19T15:03:04;3.58;;;2.05;;
31978;SDS011;18502;43.574;1.276;2022-08-19T15:05:29;3.70;;;1.98;;